Page, Arizona
Current Conditions -  °F | °C
As of 12:53 PM on Thursday 27 Nov 2014 (Local Time) from KPGA Reporting Station
Clear Clear  
Wind Chill: 54°   Ceiling: Unl
Heat Index: 54°   Visibility: 10mi
Dew Point: 19°   Wind: 3mph
Humidity: 25%   Direction: 10°N
Pressure: 30.37"   Gusts: NA
Location:  36.92°N, 111.46°W
Report Text: KPGA 271953Z AUTO 01003KT 10SM CLR 12/M07 A3037 RMK AO2 SLP268 T01221072 TSNO
Loading
Personal Weather Stations






























Interactive Weather Map New forecast layout! Learn more

10-Day Weather Forecast

Advertisements
Track Severe Weather on mobile